Aviation Digital Data Service (ADDS)

Output produced by METARs form (1806 UTC 26 September 2017)
found at http://aviationweather.gov/adds/metars/
 
KAUS 261753Z 10008KT 10SM -RA SCT021 BKN035 BKN200 28/23 A2989 RMK AO2 RAB53 SLP112 P0000 60000 T02830233 10283 20239 58006
KAUS 261653Z 10007KT 10SM FEW017 SCT033 BKN200 28/23 A2991 RMK AO2 SLP116 T02830233
KAUS 261617Z 11008KT 10SM SCT016 BKN030 BKN200 28/23 A2991 RMK AO2 T02780233
KAUS 261553Z 10008KT 10SM BKN015 BKN026 OVC200 28/24 A2991 RMK AO2 SLP117 T02780239
KAUS 261515Z 08005KT 10SM OVC010 27/24 A2991 RMK AO2 T02670239
KAUS 261453Z 09005KT 10SM OVC009 26/24 A2991 RMK AO2 SLP119 T02610239 51012
KAUS 261420Z 10005KT 10SM BKN009 OVC014 26/23 A2991 RMK AO2 T02560233 $
KAUS 261734Z 2618/2724 10010KT P6SM VCSH SCT035 BKN050 
     TEMPO 2618/2620 5SM SHRA BKN035 
     FM270300 04005KT P6SM OVC050 
     FM270800 03002KT P6SM VCSH OVC025 
     FM271300 00000KT P6SM VCSH OVC015
       
KRYW 261755Z AUTO 12003KT 10SM -RA BKN017 BKN023 27/23 A2995 RMK AO2 T02660225 10269 20240
KRYW 261735Z AUTO 12004KT 10SM -RA SCT017 27/22 A2995 RMK AO2 T02670221
KRYW 261715Z AUTO 10005KT 10SM SCT017 27/22 A2995 RMK AO2 T02680222
KRYW 261655Z AUTO 12005KT 10SM SCT017 27/22 A2995 RMK AO2 T02670221
KRYW 261635Z AUTO 12005KT 10SM SCT015 SCT020 27/22 A2995 RMK AO2 T02680222
KRYW 261615Z AUTO 13003KT 10SM OVC015 27/23 A2995 RMK AO2 T02650225
KRYW 261555Z AUTO 15005KT 10SM OVC015 26/22 A2995 RMK AO2 T02630224
KRYW 261535Z AUTO 12005KT 10SM BKN015 OVC021 26/23 A2995 RMK AO2 T02590225
KRYW 261515Z AUTO 12005KT 10SM OVC011 26/23 A2995 RMK AO2 T02590226
KRYW 261455Z AUTO 11007KT 10SM OVC009 26/23 A2995 RMK AO2 T02620230
KRYW 261435Z AUTO 11006KT 10SM BKN009 26/23 A2995 RMK AO2 T02570230
KRYW 261415Z AUTO 10006KT 10SM BKN006 25/23 A2994 RMK AO2 T02490230